createdAt,value
2023-04-15T00:01:00.811Z,57.56
2023-04-15T00:03:28.901Z,57.84
2023-04-15T00:05:55.832Z,57.80
2023-04-15T00:08:22.586Z,58.17
2023-04-15T00:10:49.624Z,58.38
2023-04-15T00:13:16.757Z,58.72
2023-04-15T00:15:43.621Z,58.86
2023-04-15T00:18:10.524Z,59.24
2023-04-15T00:20:37.799Z,59.01
2023-04-15T00:23:04.650Z,59.24
2023-04-15T00:25:31.841Z,58.85
2023-04-15T00:27:58.574Z,59.46
2023-04-15T00:30:25.898Z,59.39
2023-04-15T00:32:53.887Z,59.73
2023-04-15T00:35:21.027Z,59.97
2023-04-15T00:37:47.829Z,59.94
2023-04-15T00:40:17.987Z,60.23
2023-04-15T00:42:45.854Z,60.31
2023-04-15T00:45:13.464Z,60.55
2023-04-15T00:47:42.448Z,60.89
2023-04-15T00:50:09.832Z,60.97
2023-04-15T00:52:36.631Z,61.10
2023-04-15T00:55:05.108Z,61.18
2023-04-15T00:57:32.082Z,61.43
2023-04-15T00:59:58.868Z,61.81
2023-04-15T01:02:25.875Z,61.77
2023-04-15T01:04:52.688Z,61.58
2023-04-15T01:07:19.662Z,61.92
2023-04-15T01:09:46.579Z,61.83
2023-04-15T01:12:15.624Z,62.30
2023-04-15T01:14:42.580Z,62.55
2023-04-15T01:17:09.455Z,62.75
2023-04-15T01:19:40.005Z,62.97
2023-04-15T01:22:06.738Z,63.22
2023-04-15T01:24:34.402Z,63.54
2023-04-15T01:27:01.487Z,63.59
2023-04-15T01:29:28.288Z,63.49
2023-04-15T01:31:56.221Z,64.08
2023-04-15T01:34:23.271Z,64.42
2023-04-15T01:36:49.961Z,64.35
2023-04-15T01:39:16.697Z,64.68
2023-04-15T01:41:43.353Z,64.94
2023-04-15T01:44:10.280Z,65.27
2023-04-15T01:46:37.239Z,65.44
2023-04-15T01:49:04.036Z,65.78
2023-04-15T01:51:30.730Z,65.59
2023-04-15T01:53:57.447Z,65.68
2023-04-15T01:56:24.733Z,66.33
2023-04-15T01:58:52.033Z,67.04
2023-04-15T02:01:20.118Z,67.21
2023-04-15T02:03:48.134Z,67.43
2023-04-15T02:06:15.220Z,67.74
2023-04-15T02:08:41.908Z,68.08
2023-04-15T02:11:08.693Z,68.38
2023-04-15T02:13:35.448Z,68.53
2023-04-15T02:16:03.719Z,68.74
2023-04-15T02:18:30.749Z,68.95
2023-04-15T02:20:58.963Z,69.25
2023-04-15T02:23:26.009Z,69.41
2023-04-15T02:25:53.465Z,69.72
2023-04-15T02:28:21.990Z,70.01
2023-04-15T02:30:53.107Z,70.37
2023-04-15T02:33:20.382Z,70.29
2023-04-15T02:35:47.539Z,70.77
2023-04-15T02:38:16.934Z,71.02
2023-04-15T02:40:43.715Z,71.15
2023-04-15T02:43:10.865Z,71.26
2023-04-15T02:45:37.587Z,71.11
2023-04-15T02:48:06.701Z,71.46
2023-04-15T02:50:33.555Z,71.49
2023-04-15T02:53:01.759Z,71.58
2023-04-15T02:55:29.097Z,72.09
2023-04-15T02:57:56.053Z,72.02
2023-04-15T03:00:25.514Z,72.34
2023-04-15T03:02:56.857Z,72.56
2023-04-15T03:05:25.596Z,72.81
2023-04-15T03:07:52.515Z,73.05
2023-04-15T03:10:19.331Z,73.10
2023-04-15T03:12:46.324Z,73.38
2023-04-15T03:15:13.076Z,73.34
2023-04-15T03:17:39.822Z,73.52
2023-04-15T03:20:07.390Z,73.65
2023-04-15T03:22:34.320Z,74.03
2023-04-15T03:25:01.154Z,73.97
2023-04-15T03:27:27.830Z,74.29
2023-04-15T03:29:54.507Z,74.32
2023-04-15T03:32:21.218Z,74.50
2023-04-15T03:34:47.965Z,74.83
2023-04-15T03:37:14.660Z,75.18
2023-04-15T03:39:41.952Z,75.28
2023-04-15T03:42:08.683Z,75.04
2023-04-15T03:44:35.415Z,75.00
2023-04-15T03:47:02.116Z,74.76
2023-04-15T03:49:28.925Z,75.39
2023-04-15T03:51:56.015Z,75.62
2023-04-15T03:54:22.960Z,75.72
2023-04-15T03:56:49.677Z,75.63
2023-04-15T03:59:16.724Z,75.99
2023-04-15T04:01:43.660Z,75.82
2023-04-15T04:04:11.068Z,75.93
2023-04-15T04:06:37.965Z,75.68
2023-04-15T04:09:04.672Z,76.63
2023-04-15T04:11:31.932Z,77.03
2023-04-15T04:13:58.847Z,76.89
2023-04-15T04:16:25.633Z,76.78
2023-04-15T04:18:52.345Z,76.82
2023-04-15T04:21:19.063Z,76.67
2023-04-15T04:23:45.735Z,76.76
2023-04-15T04:26:12.444Z,76.84
2023-04-15T04:28:40.731Z,76.79
2023-04-15T04:31:08.001Z,76.86
2023-04-15T04:33:34.781Z,76.96
2023-04-15T04:36:01.638Z,77.11
2023-04-15T04:38:28.285Z,77.64
2023-04-15T04:40:54.951Z,77.56
2023-04-15T04:43:22.158Z,77.59
2023-04-15T04:45:48.990Z,77.60
2023-04-15T04:48:15.742Z,78.01
2023-04-15T04:50:42.556Z,78.21
2023-04-15T04:53:09.194Z,78.61
2023-04-15T04:55:38.990Z,78.21
2023-04-15T04:58:05.627Z,78.64
2023-04-15T05:00:32.354Z,78.28
2023-04-15T05:03:01.985Z,78.33
2023-04-15T05:05:28.815Z,78.37
2023-04-15T05:07:55.802Z,78.28
2023-04-15T05:10:22.564Z,79.12
2023-04-15T05:12:55.224Z,79.17
2023-04-15T05:15:22.011Z,79.44
2023-04-15T05:17:48.670Z,79.45
2023-04-15T05:20:15.879Z,79.42
2023-04-15T05:22:42.580Z,79.73
2023-04-15T05:25:10.028Z,80.09
2023-04-15T05:27:37.005Z,80.32
2023-04-15T05:30:03.876Z,80.39
2023-04-15T05:32:30.737Z,80.17
2023-04-15T05:34:57.482Z,80.36
2023-04-15T05:37:24.161Z,80.45
2023-04-15T05:39:50.789Z,80.47
2023-04-15T05:42:17.547Z,80.63
2023-04-15T05:44:44.261Z,80.76
2023-04-15T05:47:11.165Z,80.92
2023-04-15T05:49:37.892Z,80.48
2023-04-15T05:52:05.238Z,80.96
2023-04-15T05:54:31.974Z,80.98
2023-04-15T05:56:59.255Z,80.78
2023-04-15T05:59:26.369Z,80.99
2023-04-15T06:01:53.274Z,81.11
2023-04-15T06:04:20.245Z,81.19
2023-04-15T06:06:47.438Z,81.35
2023-04-15T06:09:14.273Z,81.28
2023-04-15T06:11:41.546Z,81.34
2023-04-15T06:14:08.481Z,81.60
2023-04-15T06:16:36.837Z,81.81
2023-04-15T06:19:04.084Z,82.12
2023-04-15T06:21:31.704Z,82.22
2023-04-15T06:24:01.644Z,82.29
2023-04-15T06:26:28.578Z,82.31
2023-04-15T06:28:55.880Z,82.26
2023-04-15T06:31:22.886Z,82.46
2023-04-15T06:33:49.782Z,82.46
2023-04-15T06:36:16.574Z,82.57
2023-04-15T06:38:43.269Z,82.40
2023-04-15T06:41:10.014Z,82.59
2023-04-15T06:43:36.733Z,82.80
2023-04-15T06:46:03.706Z,82.29
2023-04-15T06:48:30.507Z,82.32
2023-04-15T06:50:58.489Z,82.46
2023-04-15T06:53:28.451Z,82.22
2023-04-15T06:55:55.260Z,82.36
2023-04-15T06:58:22.357Z,82.52
2023-04-15T07:00:49.433Z,82.15
2023-04-15T07:03:16.449Z,81.95
2023-04-15T07:05:43.756Z,81.89
2023-04-15T07:08:10.584Z,82.11
2023-04-15T07:10:37.380Z,81.66
2023-04-15T07:13:05.188Z,81.41
2023-04-15T07:15:31.872Z,80.71
2023-04-15T07:17:58.679Z,80.64
2023-04-15T07:20:25.820Z,80.42
2023-04-15T07:22:53.416Z,79.98
2023-04-15T07:25:20.254Z,79.34
2023-04-15T07:27:47.606Z,78.80
2023-04-15T07:30:16.929Z,78.32
2023-04-15T07:32:43.791Z,77.71
2023-04-15T07:35:10.888Z,77.81
2023-04-15T07:37:37.718Z,77.25
2023-04-15T07:40:05.493Z,76.59
2023-04-15T07:42:32.175Z,75.86
2023-04-15T07:44:58.844Z,75.45
2023-04-15T07:47:25.967Z,74.90
2023-04-15T07:49:53.353Z,74.34
2023-04-15T07:52:20.041Z,73.91
2023-04-15T07:54:47.092Z,73.17
2023-04-15T07:57:20.102Z,72.29
2023-04-15T07:59:46.899Z,71.51
2023-04-15T08:02:13.764Z,71.36
2023-04-15T08:04:40.794Z,71.26
2023-04-15T08:07:07.879Z,70.80
2023-04-15T08:09:35.021Z,70.48
2023-04-15T08:12:01.992Z,69.52
2023-04-15T08:14:29.475Z,69.05
2023-04-15T08:16:56.168Z,68.75
2023-04-15T08:19:23.199Z,68.23
2023-04-15T08:21:49.945Z,68.29
2023-04-15T08:24:16.652Z,68.01
2023-04-15T08:26:43.432Z,67.51
2023-04-15T08:29:10.115Z,67.67
2023-04-15T08:31:36.923Z,66.96
2023-04-15T08:34:03.949Z,66.55
2023-04-15T08:36:31.043Z,66.24
2023-04-15T08:38:57.889Z,66.86
2023-04-15T08:41:26.351Z,66.99
2023-04-15T08:44:02.782Z,67.01
2023-04-15T08:46:30.992Z,66.90
2023-04-15T08:48:58.570Z,66.70
2023-04-15T08:51:25.906Z,66.70
2023-04-15T08:53:52.853Z,66.61
2023-04-15T08:56:20.464Z,66.12
2023-04-15T08:58:48.022Z,65.35
2023-04-15T09:01:14.930Z,65.26
2023-04-15T09:03:49.536Z,65.15
2023-04-15T09:06:22.342Z,64.84
2023-04-15T09:08:50.679Z,64.77
2023-04-15T09:11:20.776Z,64.31
2023-04-15T09:13:47.523Z,64.08
2023-04-15T09:16:14.575Z,64.33
2023-04-15T09:18:41.394Z,63.96
2023-04-15T09:21:13.429Z,63.38
2023-04-15T09:23:42.146Z,63.74
2023-04-15T09:26:08.835Z,63.47
2023-04-15T09:28:42.697Z,63.69
2023-04-15T09:31:10.815Z,63.71
2023-04-15T09:33:55.066Z,63.56
2023-04-15T09:36:21.958Z,63.68
2023-04-15T09:38:56.958Z,63.66
2023-04-15T09:41:25.104Z,64.01
2023-04-15T09:43:51.901Z,63.61
2023-04-15T09:46:18.937Z,63.68
2023-04-15T09:48:45.787Z,63.56
2023-04-15T09:51:12.559Z,63.60
2023-04-15T09:53:39.257Z,63.55
2023-04-15T09:56:08.172Z,63.16
2023-04-15T09:58:35.885Z,63.41
2023-04-15T10:01:05.161Z,62.72
2023-04-15T10:03:36.141Z,63.14
2023-04-15T10:06:04.142Z,62.94
2023-04-15T10:08:33.337Z,62.54
2023-04-15T10:11:02.188Z,62.49
2023-04-15T10:13:33.119Z,62.42
2023-04-15T10:16:01.762Z,62.70
2023-04-15T10:18:29.296Z,63.14
2023-04-15T10:20:56.214Z,63.29
2023-04-15T10:23:24.636Z,63.22
2023-04-15T10:25:54.178Z,63.90
2023-04-15T10:28:23.118Z,64.63
2023-04-15T10:30:50.347Z,64.27
2023-04-15T10:33:24.638Z,64.47
2023-04-15T10:35:52.879Z,64.62
2023-04-15T10:38:44.512Z,65.44
2023-04-15T10:41:21.470Z,65.55
2023-04-15T10:43:53.916Z,65.11
2023-04-15T10:46:40.259Z,65.39
2023-04-15T10:49:18.139Z,65.48
2023-04-15T10:51:46.719Z,64.89
2023-04-15T10:54:26.603Z,65.19
2023-04-15T10:57:09.322Z,65.69
2023-04-15T10:59:59.317Z,65.93
2023-04-15T11:02:42.553Z,66.24
2023-04-15T11:05:10.823Z,66.51
2023-04-15T11:07:44.529Z,66.63
2023-04-15T11:10:14.354Z,66.37
2023-04-15T11:12:41.465Z,66.77
2023-04-15T11:15:38.080Z,67.41
2023-04-15T11:18:15.120Z,68.52
2023-04-15T11:20:45.321Z,68.32
2023-04-15T11:23:14.591Z,68.32
2023-04-15T11:25:43.532Z,68.09
2023-04-15T11:28:12.230Z,68.26
2023-04-15T11:30:40.150Z,68.56
2023-04-15T11:33:12.647Z,68.83
2023-04-15T11:35:41.543Z,68.53
2023-04-15T11:38:14.063Z,68.24
2023-04-15T11:40:44.565Z,67.78
2023-04-15T11:43:20.481Z,67.60
2023-04-15T11:45:53.411Z,67.61
2023-04-15T11:48:21.967Z,67.47
2023-04-15T11:50:57.000Z,66.57
2023-04-15T11:53:24.880Z,65.35
2023-04-15T11:55:53.259Z,65.10
2023-04-15T11:58:24.537Z,64.97
2023-04-15T12:00:54.257Z,65.06
2023-04-15T12:03:25.307Z,65.65
2023-04-15T12:06:07.765Z,65.69
2023-04-15T12:08:55.988Z,66.58
2023-04-15T12:11:34.999Z,66.33
2023-04-15T12:14:12.885Z,67.19
2023-04-15T12:16:48.789Z,67.99
2023-04-15T12:19:35.285Z,68.16
2023-04-15T12:22:04.402Z,67.99
2023-04-15T12:24:37.909Z,68.55
2023-04-15T12:27:05.879Z,68.72
2023-04-15T12:29:33.218Z,68.49
2023-04-15T12:32:07.891Z,68.23
2023-04-15T12:34:39.215Z,68.07
2023-04-15T12:37:08.043Z,68.43
2023-04-15T12:39:36.763Z,68.08
2023-04-15T12:42:05.454Z,68.39
2023-04-15T12:44:33.393Z,68.58
2023-04-15T12:47:00.567Z,68.79
2023-04-15T12:49:27.863Z,69.11
2023-04-15T12:51:56.920Z,68.77
2023-04-15T12:54:24.122Z,68.46
2023-04-15T12:56:51.363Z,68.53
2023-04-15T12:59:18.900Z,68.77
2023-04-15T13:01:46.794Z,69.24
2023-04-15T13:04:13.666Z,69.35
2023-04-15T13:06:40.663Z,69.30
2023-04-15T13:09:07.555Z,69.44
2023-04-15T13:11:34.419Z,69.61
2023-04-15T13:14:02.455Z,69.19
2023-04-15T13:16:29.842Z,69.22
2023-04-15T13:18:56.643Z,69.21
2023-04-15T13:21:23.450Z,69.59
2023-04-15T13:23:51.434Z,70.32
2023-04-15T13:26:18.610Z,70.23
2023-04-15T13:28:45.977Z,70.17
2023-04-15T13:31:13.046Z,70.84
2023-04-15T13:33:39.723Z,71.22
2023-04-15T13:36:07.007Z,71.58
2023-04-15T13:38:33.807Z,71.49
2023-04-15T13:41:00.521Z,70.60
2023-04-15T13:43:27.237Z,70.71
2023-04-15T13:45:54.361Z,70.62
2023-04-15T13:48:21.258Z,71.29
2023-04-15T13:50:48.150Z,71.13
2023-04-15T13:53:17.349Z,71.06
2023-04-15T13:55:44.160Z,71.29
2023-04-15T13:58:11.606Z,71.39
2023-04-15T14:00:38.370Z,71.57
2023-04-15T14:03:05.544Z,71.64
2023-04-15T14:05:33.136Z,71.42
2023-04-15T14:08:00.648Z,71.81
2023-04-15T14:10:27.389Z,71.91
2023-04-15T14:12:54.248Z,71.92
2023-04-15T14:15:27.037Z,71.86
2023-04-15T14:17:53.794Z,72.28
2023-04-15T14:20:20.496Z,71.88
2023-04-15T14:22:47.197Z,71.64
2023-04-15T14:25:20.143Z,71.58
2023-04-15T14:27:57.414Z,71.64
2023-04-15T14:30:24.148Z,72.12
2023-04-15T14:32:50.859Z,72.06
2023-04-15T14:35:20.011Z,72.02
2023-04-15T14:37:49.573Z,71.98
2023-04-15T14:40:16.375Z,72.35
2023-04-15T14:42:43.205Z,72.89
2023-04-15T14:45:10.809Z,72.62
2023-04-15T14:47:37.557Z,73.08
2023-04-15T14:50:06.426Z,72.86
2023-04-15T14:52:38.765Z,73.31
2023-04-15T14:55:07.529Z,73.84
2023-04-15T14:57:34.385Z,74.34
2023-04-15T15:00:01.170Z,74.65
2023-04-15T15:02:38.384Z,74.33
2023-04-15T15:05:07.039Z,74.54
2023-04-15T15:07:35.404Z,74.75
2023-04-15T15:10:03.600Z,75.09
2023-04-15T15:12:35.452Z,74.92
2023-04-15T15:15:09.236Z,75.05
2023-04-15T15:17:39.409Z,75.01
2023-04-15T15:20:06.799Z,74.98
2023-04-15T15:22:33.514Z,74.89
2023-04-15T15:25:02.274Z,75.61
2023-04-15T15:27:29.152Z,76.30
2023-04-15T15:29:56.795Z,77.58
2023-04-15T15:32:23.478Z,77.99
2023-04-15T15:34:50.243Z,78.55
2023-04-15T15:37:16.964Z,79.31
2023-04-15T15:39:43.657Z,79.51
2023-04-15T15:42:10.337Z,79.90
2023-04-15T15:44:38.629Z,80.15
2023-04-15T15:47:09.703Z,80.49
2023-04-15T15:49:36.385Z,81.05
2023-04-15T15:52:03.138Z,81.45
2023-04-15T15:54:30.030Z,81.73
2023-04-15T15:56:57.705Z,82.47
2023-04-15T15:59:25.731Z,82.64
2023-04-15T16:01:53.023Z,83.09
2023-04-15T16:04:20.038Z,82.95
2023-04-15T16:06:47.528Z,83.41
2023-04-15T16:09:14.357Z,83.52
2023-04-15T16:11:41.788Z,83.65
2023-04-15T16:14:08.458Z,84.36
2023-04-15T16:16:35.392Z,84.23
2023-04-15T16:19:02.265Z,84.95
2023-04-15T16:21:29.138Z,85.04
2023-04-15T16:23:56.043Z,85.24
2023-04-15T16:26:23.589Z,85.81
2023-04-15T16:28:50.271Z,86.21
2023-04-15T16:31:16.932Z,86.32
2023-04-15T16:33:43.706Z,86.37
2023-04-15T16:36:10.653Z,87.01
2023-04-15T16:38:45.477Z,87.14
2023-04-15T16:41:12.173Z,87.50
2023-04-15T16:43:38.921Z,87.31
2023-04-15T16:46:05.731Z,87.68
2023-04-15T16:48:32.438Z,87.68
2023-04-15T16:50:59.223Z,88.16
2023-04-15T16:53:26.112Z,88.34
2023-04-15T16:55:52.835Z,88.51
2023-04-15T16:58:19.554Z,88.67
2023-04-15T17:00:46.338Z,88.98
2023-04-15T17:03:13.203Z,89.07
2023-04-15T17:05:40.301Z,89.58
2023-04-15T17:08:07.049Z,90.05
2023-04-15T17:10:33.837Z,90.33
2023-04-15T17:13:01.052Z,90.41
2023-04-15T17:15:28.052Z,91.11
2023-04-15T17:17:54.916Z,91.34
2023-04-15T17:20:21.982Z,91.60
2023-04-15T17:22:48.969Z,91.86
2023-04-15T17:25:16.201Z,92.16
2023-04-15T17:27:43.017Z,92.13
2023-04-15T17:30:10.322Z,92.10
2023-04-15T17:32:37.469Z,92.26
2023-04-15T17:35:06.254Z,91.79
2023-04-15T17:37:33.992Z,91.56
2023-04-15T17:40:00.861Z,91.23
2023-04-15T17:42:27.609Z,90.88
2023-04-15T17:44:54.353Z,90.88
2023-04-15T17:47:21.724Z,90.65
2023-04-15T17:49:48.419Z,90.74
2023-04-15T17:52:15.373Z,90.52
2023-04-15T17:54:42.142Z,90.75
2023-04-15T17:57:09.873Z,90.85
2023-04-15T17:59:36.714Z,90.90
2023-04-15T18:02:03.574Z,91.02
2023-04-15T18:04:30.714Z,91.68
2023-04-15T18:06:57.545Z,92.15
2023-04-15T18:09:24.502Z,92.47
2023-04-15T18:11:51.455Z,92.79
2023-04-15T18:14:32.938Z,93.37
2023-04-15T18:17:01.199Z,93.75
2023-04-15T18:19:27.975Z,94.71
2023-04-15T18:21:54.713Z,94.79
2023-04-15T18:24:22.159Z,95.44
2023-04-15T18:26:49.260Z,96.14
2023-04-15T18:29:16.375Z,96.26
2023-04-15T18:31:43.376Z,96.46
2023-04-15T18:34:10.356Z,97.07
2023-04-15T18:36:37.153Z,97.07
2023-04-15T18:39:04.786Z,97.31
2023-04-15T18:41:31.913Z,97.43
2023-04-15T18:43:58.622Z,97.45
2023-04-15T18:46:25.502Z,97.26
2023-04-15T18:48:52.207Z,97.48
2023-04-15T18:51:18.966Z,97.50
2023-04-15T18:53:45.820Z,97.79
2023-04-15T18:56:12.573Z,97.27
2023-04-15T18:59:26.088Z,97.32
2023-04-15T19:01:26.568Z,97.90
2023-04-15T19:03:53.386Z,97.82
2023-04-15T19:06:20.206Z,98.12
2023-04-15T19:08:46.880Z,98.26
2023-04-15T19:11:14.076Z,98.24
2023-04-15T19:13:40.963Z,98.44
2023-04-15T19:16:07.768Z,98.55
2023-04-15T19:18:34.801Z,98.66
2023-04-15T19:21:01.548Z,98.79
2023-04-15T19:23:28.248Z,99.13
2023-04-15T19:25:55.052Z,99.34
2023-04-15T19:28:21.870Z,99.59
2023-04-15T19:30:48.717Z,99.85
2023-04-15T19:33:15.557Z,99.83
2023-04-15T19:35:43.926Z,100.00
2023-04-15T19:38:10.708Z,100.00
2023-04-15T19:40:37.673Z,100.00
2023-04-15T19:43:04.372Z,100.00
2023-04-15T19:45:32.034Z,100.00
2023-04-15T19:47:58.914Z,100.00
2023-04-15T19:50:28.014Z,100.00
2023-04-15T19:52:54.717Z,100.00
2023-04-15T19:55:21.553Z,100.00
2023-04-15T19:57:48.462Z,100.00
2023-04-15T20:00:16.965Z,100.00
2023-04-15T20:02:43.989Z,100.00
2023-04-15T20:05:10.967Z,100.00
2023-04-15T20:07:37.701Z,100.00
2023-04-15T20:10:09.641Z,100.00
2023-04-15T20:12:50.299Z,100.00
2023-04-15T20:15:20.871Z,100.00
2023-04-15T20:17:47.596Z,100.00
2023-04-15T20:20:14.434Z,100.00
2023-04-15T20:22:41.660Z,100.00
2023-04-15T20:25:08.792Z,100.00
2023-04-15T20:27:35.666Z,100.00
2023-04-15T20:30:05.122Z,100.00
2023-04-15T20:32:36.234Z,100.00
2023-04-15T20:35:04.454Z,100.00
2023-04-15T20:37:33.812Z,100.00
2023-04-15T20:40:00.977Z,100.00
2023-04-15T20:42:27.718Z,100.00
2023-04-15T20:44:55.031Z,100.00
2023-04-15T20:47:21.827Z,100.00
2023-04-15T20:49:48.691Z,100.00
2023-04-15T20:52:15.598Z,100.00
2023-04-15T20:54:42.342Z,100.00
2023-04-15T20:57:09.440Z,100.00
2023-04-15T20:59:36.322Z,100.00
2023-04-15T21:02:03.434Z,100.00
2023-04-15T21:04:30.279Z,100.00
2023-04-15T21:06:57.048Z,100.00
2023-04-15T21:09:25.153Z,100.00
2023-04-15T21:14:21.473Z,100.00
2023-04-15T21:16:48.301Z,100.00
2023-04-15T21:19:15.129Z,100.00
2023-04-15T21:21:41.839Z,100.00
2023-04-15T21:24:08.606Z,100.00
2023-04-15T21:26:36.424Z,100.00
2023-04-15T21:29:03.794Z,100.00
2023-04-15T21:31:31.235Z,100.00
2023-04-15T21:33:57.974Z,100.00
2023-04-15T21:36:24.853Z,100.00
2023-04-15T21:38:52.138Z,100.00
2023-04-15T21:41:19.543Z,100.00
2023-04-15T21:43:46.659Z,100.00
2023-04-15T21:46:23.503Z,100.00
2023-04-15T21:48:53.420Z,100.00
2023-04-15T21:51:20.345Z,100.00
2023-04-15T21:53:47.281Z,100.00
2023-04-15T21:56:14.651Z,100.00
2023-04-15T21:58:41.503Z,100.00
2023-04-15T22:01:08.788Z,100.00
2023-04-15T22:03:35.945Z,100.00
2023-04-15T22:06:03.542Z,100.00
2023-04-15T22:08:38.274Z,100.00
2023-04-15T22:11:09.399Z,100.00
2023-04-15T22:13:36.695Z,100.00
2023-04-15T22:16:03.890Z,100.00
2023-04-15T22:18:30.804Z,100.00
2023-04-15T22:20:57.586Z,100.00
2023-04-15T22:23:24.474Z,100.00
2023-04-15T22:25:51.599Z,100.00
2023-04-15T22:28:18.651Z,100.00
2023-04-15T22:30:45.755Z,100.00
2023-04-15T22:33:12.487Z,100.00
2023-04-15T22:35:39.388Z,100.00
2023-04-15T22:38:06.504Z,100.00
2023-04-15T22:40:33.431Z,100.00
2023-04-15T22:43:00.167Z,100.00
2023-04-15T22:45:26.857Z,100.00
2023-04-15T22:47:53.685Z,100.00
2023-04-15T22:50:20.423Z,100.00
2023-04-15T22:52:48.389Z,100.00
2023-04-15T22:55:15.323Z,100.00
2023-04-15T22:57:42.075Z,100.00
2023-04-15T23:00:09.477Z,100.00
2023-04-15T23:02:36.326Z,100.00
2023-04-15T23:05:03.191Z,100.00
2023-04-15T23:07:37.904Z,100.00
2023-04-15T23:10:04.893Z,100.00
2023-04-15T23:12:31.846Z,100.00
2023-04-15T23:14:58.518Z,100.00
2023-04-15T23:17:25.311Z,100.00
2023-04-15T23:19:52.150Z,100.00
2023-04-15T23:22:18.998Z,100.00
2023-04-15T23:24:46.026Z,100.00
2023-04-15T23:27:13.139Z,100.00
2023-04-15T23:29:39.839Z,100.00
2023-04-15T23:32:06.928Z,100.00
2023-04-15T23:34:33.655Z,100.00
2023-04-15T23:37:00.371Z,100.00
2023-04-15T23:39:27.136Z,100.00
2023-04-15T23:41:53.959Z,100.00
2023-04-15T23:44:20.704Z,100.00
2023-04-15T23:46:47.618Z,100.00
2023-04-15T23:49:14.514Z,100.00
2023-04-15T23:51:41.472Z,100.00
2023-04-15T23:54:08.188Z,100.00
2023-04-15T23:56:34.875Z,100.00
2023-04-15T23:59:01.579Z,100.00
